Lamar University, Texas
Current Conditions -  °F | °C
As of 2:35 PM on Sunday 25 Jan 2015 (Local Time) from KBMT Reporting Station
Clear Clear  
Wind Chill: 69°   Ceiling: Unl
Heat Index: 69°   Visibility: 10mi
Dew Point: 43°   Wind: 8mph
Humidity: 39%   Direction: 260°W
Pressure: 30"   Gusts: 17mph
Location:  30.0543°N, 94.1762°W
Report Text: KBMT 252035Z AUTO 26007G15KT 10SM CLR 21/06 A3000 RMK AO2 T02060063
Loading
Personal Weather Stations






























Interactive Weather Map New forecast layout! Learn more

10-Day Weather Forecast

Advertisements
Track Severe Weather on mobile